Time;durP1;ratioP1;P1;durP2;ratioP2;P2;SDS_P1;SDS_P2;PMS_P1;PMS_P2;Temp;Humidity;BMP_temperature;BMP_pressure;BME280_temperature;BME280_humidity;BME280_pressure;Samples;Min_cycle;Max_cycle;Signal;HPM_P1;HPM_P2
2024/03/20 00:01:02;;;;;;;56.60;34.40;;;;;;;;;;103558;1289;544994;-71
2024/03/20 00:04:56;;;;;;;58.40;35.40;;;;;;;;;;103607;1292;545446;-71
2024/03/20 00:08:20;;;;;;;58.50;35.00;;;;;;;;;;103747;1290;544713;-71
2024/03/20 00:11:57;;;;;;;58.00;35.90;;;;;;;;;;103721;1289;544980;-70
2024/03/20 00:15:32;;;;;;;55.80;35.60;;;;;;;;;;103659;1292;545105;-70
2024/03/20 00:19:12;;;;;;;55.70;34.90;;;;;;;;;;103538;1295;545954;-70
2024/03/20 00:22:47;;;;;;;54.80;36.00;;;;;;;;;;104097;1289;545492;-70
2024/03/20 00:26:25;;;;;;;51.00;33.40;;;;;;;;;;103761;1290;545057;-70
2024/03/20 00:34:00;;;;;;;64.00;39.10;;;;;;;;;;103581;1292;544895;-70
2024/03/20 00:37:34;;;;;;;60.60;38.40;;;;;;;;;;103975;1288;545457;-72
2024/03/20 00:41:21;;;;;;;59.20;38.80;;;;;;;;;;103521;1293;545155;-69
2024/03/20 00:45:10;;;;;;;65.80;40.70;;;;;;;;;;103666;1292;544910;-71
2024/03/20 00:48:33;;;;;;;67.10;42.20;;;;;;;;;;103755;1289;545708;-70
2024/03/20 00:52:05;;;;;;;73.10;44.10;;;;;;;;;;103630;1289;544844;-70
2024/03/20 00:55:41;;;;;;;70.00;43.40;;;;;;;;;;103616;1289;545309;-71
2024/03/20 01:00:06;;;;;;;72.00;44.10;;;;;;;;;;103816;1289;548099;-70
2024/03/20 01:02:56;;;;;;;71.60;44.20;;;;;;;;;;103615;1289;544921;-70
2024/03/20 01:07:26;;;;;;;;;;;;;;;;;;;;;
2024/03/20 01:10:43;;;;;;;73.20;45.30;;;;;;;;;;103774;1289;546145;-70
2024/03/20 01:14:23;;;;;;;65.20;39.20;;;;;;;;;;103314;1292;547982;-71
2024/03/20 01:17:29;;;;;;;63.70;38.20;;;;;;;;;;103518;1294;545519;-70
2024/03/20 01:21:06;;;;;;;55.10;34.20;;;;;;;;;;103857;1286;545418;-70
2024/03/20 01:25:01;;;;;;;58.10;36.30;;;;;;;;;;103659;1294;549587;-71
2024/03/20 01:28:23;;;;;;;66.60;38.60;;;;;;;;;;103787;1289;545104;-70
2024/03/20 01:32:02;;;;;;;58.10;35.40;;;;;;;;;;103640;1292;545853;-69
2024/03/20 01:35:34;;;;;;;58.50;34.30;;;;;;;;;;103672;1289;544992;-71
2024/03/20 01:39:36;;;;;;;51.10;31.00;;;;;;;;;;103514;1295;545509;-71
2024/03/20 01:42:53;;;;;;;44.30;28.00;;;;;;;;;;103883;1289;545943;-70
2024/03/20 01:47:10;;;;;;;36.70;23.30;;;;;;;;;;103424;1295;545298;-75
2024/03/20 01:50:08;;;;;;;43.60;26.60;;;;;;;;;;103524;1290;546012;-68
2024/03/20 01:53:43;;;;;;;31.60;20.40;;;;;;;;;;103729;1289;544792;-70
2024/03/20 01:57:21;;;;;;;28.40;16.70;;;;;;;;;;103548;1294;545607;-70
2024/03/20 02:00:56;;;;;;;21.70;14.10;;;;;;;;;;103383;1298;544853;-70
2024/03/20 02:04:37;;;;;;;21.80;13.70;;;;;;;;;;104094;1286;545684;-70
2024/03/20 02:08:15;;;;;;;22.10;14.10;;;;;;;;;;103604;1289;544804;-69
2024/03/20 02:12:08;;;;;;;38.00;22.70;;;;;;;;;;103761;1292;544734;-71
2024/03/20 02:15:26;;;;;;;26.30;17.30;;;;;;;;;;103680;1289;545277;-69
2024/03/20 02:19:06;;;;;;;22.40;14.70;;;;;;;;;;103739;1289;545037;-69
2024/03/20 02:23:06;;;;;;;22.10;14.50;;;;;;;;;;103654;1301;544924;-72
2024/03/20 02:26:24;;;;;;;20.70;14.00;;;;;;;;;;104357;1282;549602;-71
2024/03/20 02:29:58;;;;;;;21.70;14.40;;;;;;;;;;103471;1295;545551;-70
2024/03/20 02:37:11;;;;;;;20.90;14.50;;;;;;;;;;103547;1292;545059;-70
2024/03/20 02:41:14;;;;;;;22.10;15.10;;;;;;;;;;103370;1292;547091;-70
2024/03/20 02:44:44;;;;;;;22.20;14.40;;;;;;;;;;103487;1295;546234;-71
2024/03/20 02:48:13;;;;;;;22.20;15.10;;;;;;;;;;103803;1290;545432;-71
2024/03/20 02:52:19;;;;;;;22.50;14.60;;;;;;;;;;103447;1294;545042;-70
2024/03/20 02:55:19;;;;;;;20.90;13.70;;;;;;;;;;103592;1292;544853;-71
2024/03/20 02:58:56;;;;;;;20.90;13.90;;;;;;;;;;103705;1289;545322;-70
2024/03/20 03:02:34;;;;;;;20.70;14.30;;;;;;;;;;103787;1299;545718;-71
2024/03/20 03:06:26;;;;;;;19.50;13.50;;;;;;;;;;103497;1292;545156;-69
2024/03/20 03:09:48;;;;;;;20.00;13.50;;;;;;;;;;103569;1290;545021;-71
2024/03/20 03:13:28;;;;;;;20.90;14.00;;;;;;;;;;103728;1289;545009;-70
2024/03/20 03:17:22;;;;;;;;;;;;;;;;;;;;;
2024/03/20 03:20:36;;;;;;;22.50;14.00;;;;;;;;;;104432;1282;544857;-70
2024/03/20 03:24:18;;;;;;;24.50;15.80;;;;;;;;;;103737;1292;545005;-71
2024/03/20 03:27:55;;;;;;;28.60;18.10;;;;;;;;;;103548;1290;545540;-70
2024/03/20 03:32:18;;;;;;;27.90;17.10;;;;;;;;;;103191;1298;545517;-70
2024/03/20 03:35:10;;;;;;;28.40;17.60;;;;;;;;;;103559;1289;544763;-70
2024/03/20 03:38:44;;;;;;;27.40;17.50;;;;;;;;;;104018;1289;544882;-70
2024/03/20 03:43:03;;;;;;;28.60;16.30;;;;;;;;;;103692;1302;545321;-72
2024/03/20 03:46:11;;;;;;;25.30;16.50;;;;;;;;;;103779;1292;544763;-69
2024/03/20 03:49:46;;;;;;;26.30;16.70;;;;;;;;;;103621;1292;545712;-69
2024/03/20 03:53:44;;;;;;;26.60;16.80;;;;;;;;;;103817;1289;544961;-70
2024/03/20 03:57:01;;;;;;;25.70;16.40;;;;;;;;;;103549;1299;545000;-72
2024/03/20 04:00:50;;;;;;;31.80;19.80;;;;;;;;;;103690;1289;545332;-70
2024/03/20 04:04:21;;;;;;;33.70;21.60;;;;;;;;;;103582;1290;545237;-70
2024/03/20 04:07:54;;;;;;;36.00;22.10;;;;;;;;;;103562;1288;546733;-70
2024/03/20 04:11:37;;;;;;;33.90;21.20;;;;;;;;;;103725;1295;545387;-71
2024/03/20 04:15:17;;;;;;;32.60;21.50;;;;;;;;;;103527;1291;544895;-70
2024/03/20 04:18:46;;;;;;;31.80;20.80;;;;;;;;;;103652;1301;545073;-71
2024/03/20 04:22:53;;;;;;;31.80;21.30;;;;;;;;;;104063;1286;545474;-70
2024/03/20 04:26:01;;;;;;;32.30;20.30;;;;;;;;;;103760;1290;545006;-70
2024/03/20 04:29:43;;;;;;;28.80;18.40;;;;;;;;;;103706;1289;544682;-70
2024/03/20 04:33:16;;;;;;;27.30;18.30;;;;;;;;;;103629;1289;545027;-71
2024/03/20 04:36:57;;;;;;;28.00;18.00;;;;;;;;;;103782;1289;544942;-70
2024/03/20 04:44:16;;;;;;;27.10;18.00;;;;;;;;;;103834;1292;545516;-70
2024/03/20 04:48:11;;;;;;;28.70;19.00;;;;;;;;;;103646;1292;544916;-70
2024/03/20 04:51:41;;;;;;;26.00;17.70;;;;;;;;;;103882;1292;544985;-71
2024/03/20 04:55:40;;;;;;;31.10;19.60;;;;;;;;;;103752;1288;545406;-70
2024/03/20 04:59:08;;;;;;;29.40;18.10;;;;;;;;;;103718;1290;545515;-72
2024/03/20 05:06:36;;;;;;;28.60;20.20;;;;;;;;;;103488;1292;545601;-70
2024/03/20 05:09:39;;;;;;;33.70;22.40;;;;;;;;;;103786;1296;545324;-69
2024/03/20 05:13:17;;;;;;;35.20;23.40;;;;;;;;;;103611;1292;546235;-70
2024/03/20 05:16:59;;;;;;;36.60;23.00;;;;;;;;;;103504;1295;544921;-70
2024/03/20 05:20:32;;;;;;;33.20;20.30;;;;;;;;;;103414;1292;544811;-70
2024/03/20 05:24:09;;;;;;;32.40;20.50;;;;;;;;;;103697;1289;545605;-71
2024/03/20 05:28:08;;;;;;;36.90;22.30;;;;;;;;;;103691;1289;545084;-70
2024/03/20 05:31:41;;;;;;;40.80;24.20;;;;;;;;;;103635;1291;546865;-72
2024/03/20 05:35:06;;;;;;;40.90;24.80;;;;;;;;;;103547;1289;544924;-71
2024/03/20 05:38:39;;;;;;;41.10;25.00;;;;;;;;;;103667;1292;544984;-69
2024/03/20 05:43:01;;;;;;;38.60;22.80;;;;;;;;;;103528;1292;545114;-70
2024/03/20 05:45:56;;;;;;;37.00;22.30;;;;;;;;;;103659;1292;544776;-70
2024/03/20 05:49:43;;;;;;;34.50;21.70;;;;;;;;;;103635;1293;545507;-70
2024/03/20 05:53:12;;;;;;;29.80;16.80;;;;;;;;;;103678;1289;545574;-71
2024/03/20 05:57:06;;;;;;;29.80;15.50;;;;;;;;;;104424;1283;545545;-71
2024/03/20 06:00:25;;;;;;;24.00;14.10;;;;;;;;;;103688;1289;544798;-71
2024/03/20 06:04:02;;;;;;;26.80;15.90;;;;;;;;;;103695;1292;544799;-71
2024/03/20 06:07:35;;;;;;;25.40;14.70;;;;;;;;;;103859;1289;545992;-71
2024/03/20 06:11:18;;;;;;;24.10;14.90;;;;;;;;;;103682;1292;544829;-70
2024/03/20 06:15:39;;;;;;;22.50;14.40;;;;;;;;;;103710;1292;545456;-72
2024/03/20 06:18:32;;;;;;;22.60;14.10;;;;;;;;;;103718;1290;545053;-72
2024/03/20 06:22:11;;;;;;;22.60;13.90;;;;;;;;;;103703;1289;544965;-72
2024/03/20 06:25:46;;;;;;;22.00;14.30;;;;;;;;;;103719;1293;545076;-71
2024/03/20 06:29:24;;;;;;;23.70;15.10;;;;;;;;;;103497;1289;545768;-70
2024/03/20 06:33:22;;;;;;;31.40;18.00;;;;;;;;;;103673;1292;546224;-70
2024/03/20 06:36:51;;;;;;;24.40;15.40;;;;;;;;;;103830;1289;545923;-71
2024/03/20 06:40:25;;;;;;;27.40;14.90;;;;;;;;;;103710;1291;547212;-71
2024/03/20 06:43:54;;;;;;;30.80;15.60;;;;;;;;;;103779;1292;544860;-72
2024/03/20 06:47:31;;;;;;;25.20;14.50;;;;;;;;;;103811;1289;544854;-72
2024/03/20 06:51:09;;;;;;;24.80;14.90;;;;;;;;;;103752;1290;546546;-71
2024/03/20 06:54:50;;;;;;;24.80;16.70;;;;;;;;;;104026;1286;545062;-71
2024/03/20 06:58:41;;;;;;;26.50;15.60;;;;;;;;;;103687;1291;544838;-71
2024/03/20 07:02:25;;;;;;;21.90;14.20;;;;;;;;;;103840;1291;545162;-72
2024/03/20 07:05:38;;;;;;;19.90;13.90;;;;;;;;;;103685;1292;544806;-70
2024/03/20 07:09:37;;;;;;;20.30;13.30;;;;;;;;;;103691;1292;544758;-71
2024/03/20 07:12:57;;;;;;;20.40;13.40;;;;;;;;;;103791;1290;544734;-72
2024/03/20 07:16:27;;;;;;;20.30;13.40;;;;;;;;;;103911;1292;545470;-71
2024/03/20 07:20:09;;;;;;;20.10;13.80;;;;;;;;;;103742;1292;545697;-72
2024/03/20 07:24:06;;;;;;;22.20;14.30;;;;;;;;;;103924;1289;545033;-72
2024/03/20 07:27:28;;;;;;;21.00;13.70;;;;;;;;;;103692;1291;545079;-72
2024/03/20 07:31:04;;;;;;;22.20;13.40;;;;;;;;;;103714;1293;545564;-72
2024/03/20 07:34:41;;;;;;;19.30;12.80;;;;;;;;;;103718;1289;544838;-72
2024/03/20 07:38:13;;;;;;;18.80;12.50;;;;;;;;;;103686;1292;544931;-71
2024/03/20 07:41:56;;;;;;;18.40;12.90;;;;;;;;;;104364;1294;545104;-72
2024/03/20 07:45:32;;;;;;;18.40;12.50;;;;;;;;;;103857;1289;545563;-71
2024/03/20 07:49:29;;;;;;;19.60;13.10;;;;;;;;;;103890;1291;545551;-72
2024/03/20 07:52:47;;;;;;;23.90;14.00;;;;;;;;;;103790;1289;545473;-73
2024/03/20 07:56:25;;;;;;;25.50;14.20;;;;;;;;;;103787;1289;544964;-72
2024/03/20 08:00:05;;;;;;;23.00;14.90;;;;;;;;;;103829;1288;545025;-72
2024/03/20 08:03:43;;;;;;;22.40;14.50;;;;;;;;;;103788;1289;545059;-70
2024/03/20 08:07:18;;;;;;;21.90;14.00;;;;;;;;;;103766;1292;545206;-71
2024/03/20 08:10:53;;;;;;;22.30;13.30;;;;;;;;;;103741;1292;545044;-72
2024/03/20 08:14:42;;;;;;;21.90;14.20;;;;;;;;;;103836;1289;545423;-72
2024/03/20 08:18:09;;;;;;;25.40;14.50;;;;;;;;;;104060;1288;544935;-72
2024/03/20 08:21:46;;;;;;;23.60;13.40;;;;;;;;;;103775;1289;545029;-72
2024/03/20 08:25:29;;;;;;;27.30;16.10;;;;;;;;;;103810;1292;547774;-73
2024/03/20 08:29:00;;;;;;;19.00;11.30;;;;;;;;;;104141;1286;544999;-72
2024/03/20 08:32:39;;;;;;;14.10;9.60;;;;;;;;;;103902;1289;545472;-72
2024/03/20 08:36:16;;;;;;;16.70;10.70;;;;;;;;;;103755;1292;545155;-71
2024/03/20 08:39:53;;;;;;;15.70;10.40;;;;;;;;;;103827;1291;545672;-72
2024/03/20 08:43:33;;;;;;;16.60;10.50;;;;;;;;;;103721;1290;544976;-72
2024/03/20 08:47:18;;;;;;;17.50;12.30;;;;;;;;;;103811;1289;544764;-72
2024/03/20 08:50:46;;;;;;;15.70;10.30;;;;;;;;;;103920;1288;544965;-73
2024/03/20 08:54:24;;;;;;;13.90;8.90;;;;;;;;;;103772;1290;544796;-72
2024/03/20 08:58:04;;;;;;;13.90;9.30;;;;;;;;;;103734;1291;545600;-72
2024/03/20 09:01:44;;;;;;;14.10;8.90;;;;;;;;;;103689;1295;544802;-71
2024/03/20 09:05:18;;;;;;;15.40;9.20;;;;;;;;;;103654;1289;545359;-72
2024/03/20 09:08:53;;;;;;;15.50;8.80;;;;;;;;;;103977;1288;544808;-71
2024/03/20 09:12:34;;;;;;;13.60;8.50;;;;;;;;;;104646;1282;546050;-72
2024/03/20 09:16:08;;;;;;;14.00;9.40;;;;;;;;;;103646;1292;544799;-72
2024/03/20 09:19:53;;;;;;;17.00;9.50;;;;;;;;;;103631;1291;545796;-73
2024/03/20 09:23:23;;;;;;;14.80;9.20;;;;;;;;;;103664;1291;544817;-72
2024/03/20 09:27:04;;;;;;;14.40;9.00;;;;;;;;;;103557;1294;545094;-73
2024/03/20 09:30:39;;;;;;;15.70;9.80;;;;;;;;;;103885;1289;544932;-73
2024/03/20 09:34:15;;;;;;;17.30;8.90;;;;;;;;;;103839;1292;546302;-72
2024/03/20 09:38:02;;;;;;;14.90;8.80;;;;;;;;;;103785;1289;545060;-72
2024/03/20 09:41:32;;;;;;;14.60;8.70;;;;;;;;;;103840;1289;544735;-73
2024/03/20 09:45:09;;;;;;;21.30;11.20;;;;;;;;;;103723;1292;545645;-72
2024/03/20 09:48:54;;;;;;;17.70;9.60;;;;;;;;;;103758;1293;545408;-72
2024/03/20 09:52:26;;;;;;;13.10;8.50;;;;;;;;;;103967;1289;544900;-71
2024/03/20 09:56:09;;;;;;;13.70;8.40;;;;;;;;;;103849;1290;545024;-71
2024/03/20 10:00:07;;;;;;;13.40;8.50;;;;;;;;;;103727;1290;545493;-72
2024/03/20 10:03:15;;;;;;;15.30;9.00;;;;;;;;;;103779;1289;545648;-72
2024/03/20 10:06:53;;;;;;;15.20;9.40;;;;;;;;;;103903;1288;545863;-73
2024/03/20 10:10:32;;;;;;;13.10;9.10;;;;;;;;;;103743;1289;544819;-72
2024/03/20 10:14:16;;;;;;;15.20;9.00;;;;;;;;;;103795;1292;545969;-70
2024/03/20 10:17:45;;;;;;;14.60;8.80;;;;;;;;;;103816;1288;546045;-70
2024/03/20 10:21:22;;;;;;;14.90;9.50;;;;;;;;;;103788;1289;544837;-71
2024/03/20 10:25:00;;;;;;;13.90;9.30;;;;;;;;;;103717;1292;544994;-73
2024/03/20 10:28:38;;;;;;;14.80;9.40;;;;;;;;;;103747;1292;545293;-73
2024/03/20 10:32:15;;;;;;;16.50;9.60;;;;;;;;;;103788;1289;545925;-72
2024/03/20 10:35:55;;;;;;;15.50;9.00;;;;;;;;;;103790;1293;544746;-72
2024/03/20 10:39:31;;;;;;;15.00;9.40;;;;;;;;;;104327;1283;544939;-72
2024/03/20 10:43:12;;;;;;;15.40;9.80;;;;;;;;;;103896;1289;545009;-71
2024/03/20 10:46:48;;;;;;;15.30;9.50;;;;;;;;;;103757;1290;545365;-72
2024/03/20 10:50:22;;;;;;;15.10;9.60;;;;;;;;;;103728;1291;545450;-72
2024/03/20 10:54:01;;;;;;;15.40;8.80;;;;;;;;;;103986;1289;544797;-70
2024/03/20 10:57:37;;;;;;;17.30;9.60;;;;;;;;;;103712;1295;545005;-73
2024/03/20 11:01:14;;;;;;;14.20;9.30;;;;;;;;;;103791;1292;546583;-72
2024/03/20 11:04:52;;;;;;;14.30;8.90;;;;;;;;;;103591;1292;545498;-73
2024/03/20 11:08:29;;;;;;;15.60;9.60;;;;;;;;;;103825;1289;544753;-72
2024/03/20 11:12:24;;;;;;;19.40;11.50;;;;;;;;;;103741;1292;545995;-72
2024/03/20 11:15:47;;;;;;;19.00;10.70;;;;;;;;;;103837;1290;545053;-73
2024/03/20 11:19:22;;;;;;;20.70;12.50;;;;;;;;;;103798;1291;544871;-72
2024/03/20 11:23:04;;;;;;;14.90;9.40;;;;;;;;;;103710;1292;545045;-73
2024/03/20 11:26:37;;;;;;;14.70;10.00;;;;;;;;;;103843;1292;544918;-70
2024/03/20 11:30:15;;;;;;;64.90;48.00;;;;;;;;;;104213;1286;545045;-71
2024/03/20 11:33:51;;;;;;;16.10;11.50;;;;;;;;;;103766;1289;544723;-73
2024/03/20 11:37:32;;;;;;;17.60;12.80;;;;;;;;;;103935;1289;545200;-71
2024/03/20 11:41:10;;;;;;;18.00;10.30;;;;;;;;;;103882;1289;544954;-71
2024/03/20 11:44:45;;;;;;;24.80;18.00;;;;;;;;;;103815;1292;544717;-71
2024/03/20 11:48:23;;;;;;;14.70;9.50;;;;;;;;;;103761;1295;544856;-71
2024/03/20 11:51:56;;;;;;;14.80;8.80;;;;;;;;;;104465;1286;545055;-72
2024/03/20 11:55:37;;;;;;;16.80;9.50;;;;;;;;;;103826;1289;546043;-73
2024/03/20 11:59:17;;;;;;;18.10;12.00;;;;;;;;;;103895;1289;545322;-73
2024/03/20 12:02:52;;;;;;;17.30;11.50;;;;;;;;;;103900;1289;544974;-70
2024/03/20 12:06:35;;;;;;;15.80;9.20;;;;;;;;;;103858;1292;546450;-73
2024/03/20 12:10:27;;;;;;;16.60;9.90;;;;;;;;;;104204;1283;545906;-74
2024/03/20 12:13:46;;;;;;;11.50;8.00;;;;;;;;;;103611;1295;545488;-72
2024/03/20 12:17:22;;;;;;;175.20;113.60;;;;;;;;;;103761;1289;546125;-71
2024/03/20 12:20:59;;;;;;;16.80;10.90;;;;;;;;;;103888;1292;545402;-73
2024/03/20 12:24:37;;;;;;;15.10;9.20;;;;;;;;;;103633;1291;545072;-73
2024/03/20 12:28:14;;;;;;;14.70;8.20;;;;;;;;;;103687;1295;545029;-72
2024/03/20 12:31:55;;;;;;;14.70;9.00;;;;;;;;;;103616;1295;544840;-74
2024/03/20 12:35:29;;;;;;;17.70;8.50;;;;;;;;;;103760;1292;544832;-72
2024/03/20 12:39:08;;;;;;;13.60;8.00;;;;;;;;;;103886;1288;545850;-72
2024/03/20 12:42:44;;;;;;;15.50;9.10;;;;;;;;;;103704;1292;544973;-72
2024/03/20 12:46:22;;;;;;;19.00;11.00;;;;;;;;;;104070;1289;544800;-72
2024/03/20 12:49:59;;;;;;;14.30;8.90;;;;;;;;;;104425;1289;544734;-74
2024/03/20 12:53:37;;;;;;;13.00;8.60;;;;;;;;;;103755;1292;545285;-73
2024/03/20 12:57:15;;;;;;;16.40;8.80;;;;;;;;;;103842;1289;546093;-74
2024/03/20 13:00:54;;;;;;;17.80;9.70;;;;;;;;;;103719;1292;545477;-73
2024/03/20 13:04:29;;;;;;;16.30;8.80;;;;;;;;;;103920;1292;545502;-73
2024/03/20 13:08:08;;;;;;;21.10;11.00;;;;;;;;;;103956;1289;544714;-73
2024/03/20 13:11:44;;;;;;;22.00;11.40;;;;;;;;;;104139;1286;545782;-72
2024/03/20 13:15:25;;;;;;;17.30;9.20;;;;;;;;;;103873;1296;544885;-73
2024/03/20 13:19:04;;;;;;;18.90;9.60;;;;;;;;;;103864;1289;544921;-72
2024/03/20 13:22:37;;;;;;;16.70;8.80;;;;;;;;;;103780;1289;545590;-71
2024/03/20 13:26:17;;;;;;;18.30;8.40;;;;;;;;;;104180;1286;545094;-71
2024/03/20 13:29:53;;;;;;;20.60;11.50;;;;;;;;;;104474;1283;546205;-72
2024/03/20 13:33:27;;;;;;;17.70;10.20;;;;;;;;;;103806;1293;545537;-73
2024/03/20 13:37:09;;;;;;;19.10;10.00;;;;;;;;;;103841;1294;544870;-72
2024/03/20 13:40:51;;;;;;;17.10;10.00;;;;;;;;;;104626;1283;545925;-73
2024/03/20 13:44:23;;;;;;;19.80;11.20;;;;;;;;;;103533;1292;544978;-73
2024/03/20 13:47:59;;;;;;;17.80;10.10;;;;;;;;;;103707;1292;545327;-72
2024/03/20 13:51:37;;;;;;;16.50;10.30;;;;;;;;;;103937;1289;546101;-72
2024/03/20 13:55:14;;;;;;;14.60;9.80;;;;;;;;;;104676;1283;544747;-70
2024/03/20 13:58:52;;;;;;;17.20;10.20;;;;;;;;;;103908;1292;544786;-74
2024/03/20 14:02:30;;;;;;;17.20;11.10;;;;;;;;;;103691;1291;545734;-71
2024/03/20 14:06:06;;;;;;;17.10;10.50;;;;;;;;;;103793;1289;545590;-73
2024/03/20 14:09:45;;;;;;;16.30;9.40;;;;;;;;;;103794;1289;545496;-72
2024/03/20 14:13:21;;;;;;;15.90;9.40;;;;;;;;;;103620;1293;544875;-72
2024/03/20 14:17:00;;;;;;;16.20;9.70;;;;;;;;;;104003;1288;544948;-73
2024/03/20 14:20:39;;;;;;;37.70;28.20;;;;;;;;;;103811;1302;545036;-72
2024/03/20 14:24:14;;;;;;;40.00;24.10;;;;;;;;;;103861;1289;544793;-73
2024/03/20 14:27:51;;;;;;;21.70;12.80;;;;;;;;;;103854;1289;545992;-72
2024/03/20 14:31:30;;;;;;;19.20;10.10;;;;;;;;;;103733;1291;545776;-72
2024/03/20 14:35:10;;;;;;;15.70;8.60;;;;;;;;;;103795;1295;544750;-73
2024/03/20 14:38:45;;;;;;;15.40;9.60;;;;;;;;;;104951;1292;544890;-72
2024/03/20 14:42:21;;;;;;;17.40;8.70;;;;;;;;;;103786;1292;544824;-73
2024/03/20 14:46:02;;;;;;;17.10;11.00;;;;;;;;;;103704;1291;545369;-72
2024/03/20 14:49:36;;;;;;;15.90;9.30;;;;;;;;;;103920;1290;545672;-71
2024/03/20 14:53:16;;;;;;;15.90;8.80;;;;;;;;;;103819;1289;544940;-73
2024/03/20 14:56:51;;;;;;;17.00;10.50;;;;;;;;;;103725;1289;545581;-72
2024/03/20 15:00:29;;;;;;;15.10;9.50;;;;;;;;;;103619;1291;544975;-72
2024/03/20 15:04:06;;;;;;;32.80;22.10;;;;;;;;;;103840;1292;544997;-72
2024/03/20 15:07:43;;;;;;;21.20;15.80;;;;;;;;;;103841;1289;544710;-71
2024/03/20 15:11:23;;;;;;;19.00;9.60;;;;;;;;;;103939;1290;545603;-72
2024/03/20 15:14:55;;;;;;;18.60;8.40;;;;;;;;;;104004;1292;544998;-72
2024/03/20 15:18:32;;;;;;;19.50;9.20;;;;;;;;;;103829;1289;545830;-73
2024/03/20 15:22:16;;;;;;;17.00;10.50;;;;;;;;;;104047;1286;545336;-73
2024/03/20 15:25:51;;;;;;;15.80;8.70;;;;;;;;;;103860;1292;544858;-74
2024/03/20 15:29:32;;;;;;;14.70;8.10;;;;;;;;;;103843;1289;544906;-72
2024/03/20 15:33:06;;;;;;;13.50;7.90;;;;;;;;;;103895;1290;547009;-72
2024/03/20 15:36:44;;;;;;;16.10;8.80;;;;;;;;;;103767;1292;545042;-72
2024/03/20 15:40:21;;;;;;;14.40;8.30;;;;;;;;;;103685;1291;545538;-72
2024/03/20 15:43:59;;;;;;;18.80;8.60;;;;;;;;;;103881;1290;544988;-72
2024/03/20 15:47:36;;;;;;;25.80;16.80;;;;;;;;;;103721;1303;545480;-72
2024/03/20 15:51:24;;;;;;;24.70;17.90;;;;;;;;;;103822;1292;544835;-72
2024/03/20 15:54:51;;;;;;;14.90;9.40;;;;;;;;;;103728;1291;545975;-72
2024/03/20 15:58:28;;;;;;;17.40;9.80;;;;;;;;;;103814;1289;546442;-71
2024/03/20 16:02:12;;;;;;;14.70;9.50;;;;;;;;;;103788;1292;544895;-72
2024/03/20 16:05:43;;;;;;;14.60;9.00;;;;;;;;;;103776;1289;544960;-71
2024/03/20 16:09:25;;;;;;;14.10;8.50;;;;;;;;;;104567;1285;546700;-72
2024/03/20 16:12:58;;;;;;;14.70;8.80;;;;;;;;;;103632;1294;547083;-72
2024/03/20 16:16:36;;;;;;;15.20;8.90;;;;;;;;;;103826;1290;544726;-71
2024/03/20 16:20:15;;;;;;;16.60;9.40;;;;;;;;;;103888;1289;544833;-71
2024/03/20 16:23:51;;;;;;;16.90;9.90;;;;;;;;;;103775;1292;545587;-72
2024/03/20 16:27:29;;;;;;;17.80;9.20;;;;;;;;;;103724;1290;545059;-70
2024/03/20 16:31:05;;;;;;;16.80;9.50;;;;;;;;;;104290;1288;545303;-71
2024/03/20 16:34:45;;;;;;;18.00;9.40;;;;;;;;;;103752;1292;545512;-72
2024/03/20 16:38:20;;;;;;;17.90;10.20;;;;;;;;;;103916;1290;544917;-71
2024/03/20 16:42:00;;;;;;;19.10;10.40;;;;;;;;;;103720;1295;544939;-72
2024/03/20 16:45:35;;;;;;;15.90;9.60;;;;;;;;;;103996;1289;545026;-72
2024/03/20 16:49:14;;;;;;;17.90;9.70;;;;;;;;;;103866;1294;545121;-70
2024/03/20 16:52:47;;;;;;;16.30;9.90;;;;;;;;;;103776;1300;544852;-71
2024/03/20 16:56:29;;;;;;;16.10;9.90;;;;;;;;;;103807;1292;545668;-71
2024/03/20 17:00:07;;;;;;;20.00;9.90;;;;;;;;;;103859;1289;545116;-71
2024/03/20 17:03:44;;;;;;;20.50;12.20;;;;;;;;;;103704;1289;545046;-71
2024/03/20 17:07:26;;;;;;;31.40;20.20;;;;;;;;;;103837;1289;544824;-72
2024/03/20 17:10:58;;;;;;;38.80;22.50;;;;;;;;;;103839;1292;544770;-72
2024/03/20 17:15:00;;;;;;;54.70;34.00;;;;;;;;;;103411;1297;544817;-72
2024/03/20 17:18:14;;;;;;;41.70;25.20;;;;;;;;;;103784;1289;545654;-72
2024/03/20 17:21:59;;;;;;;36.20;20.00;;;;;;;;;;103879;1288;546000;-72
2024/03/20 17:25:37;;;;;;;31.60;18.50;;;;;;;;;;103702;1291;545615;-71
2024/03/20 17:29:16;;;;;;;25.60;15.00;;;;;;;;;;104039;1289;544984;-71
2024/03/20 17:33:04;;;;;;;25.10;14.10;;;;;;;;;;103796;1289;544755;-72
2024/03/20 17:36:24;;;;;;;22.80;13.40;;;;;;;;;;103741;1293;546027;-71
2024/03/20 17:40:05;;;;;;;31.80;17.50;;;;;;;;;;104269;1285;545584;-71
2024/03/20 17:43:42;;;;;;;50.30;26.70;;;;;;;;;;103715;1292;545040;-72
2024/03/20 17:47:15;;;;;;;70.60;35.60;;;;;;;;;;103696;1291;545255;-72
2024/03/20 17:51:03;;;;;;;70.00;34.30;;;;;;;;;;103700;1291;545292;-71
2024/03/20 17:54:29;;;;;;;89.20;38.10;;;;;;;;;;103716;1289;545639;-72
2024/03/20 17:58:05;;;;;;;100.80;42.00;;;;;;;;;;103635;1296;545016;-71
2024/03/20 18:01:44;;;;;;;160.90;59.90;;;;;;;;;;103799;1291;545201;-71
2024/03/20 18:05:24;;;;;;;245.20;92.90;;;;;;;;;;103926;1289;545044;-72
2024/03/20 18:09:13;;;;;;;;;;;;;;;;;;;;;
2024/03/20 18:12:38;;;;;;;273.90;100.90;;;;;;;;;;103858;1296;545827;-70
2024/03/20 18:16:14;;;;;;;306.30;110.60;;;;;;;;;;105809;1289;545062;-71
2024/03/20 18:19:50;;;;;;;239.40;90.10;;;;;;;;;;103898;1292;544790;-72
2024/03/20 18:23:32;;;;;;;188.90;72.00;;;;;;;;;;103778;1291;546132;-71
2024/03/20 18:27:08;;;;;;;133.60;57.10;;;;;;;;;;103813;1288;544938;-71
2024/03/20 18:30:46;;;;;;;118.70;53.40;;;;;;;;;;103851;1289;544961;-72
2024/03/20 18:34:21;;;;;;;104.30;50.00;;;;;;;;;;103941;1289;545475;-72
2024/03/20 18:37:54;;;;;;;108.30;51.20;;;;;;;;;;104117;1289;544723;-72
2024/03/20 18:41:37;;;;;;;84.60;44.80;;;;;;;;;;103764;1302;545051;-71
2024/03/20 18:45:33;;;;;;;77.40;44.80;;;;;;;;;;103825;1292;547873;-74
2024/03/20 18:48:50;;;;;;;75.50;43.00;;;;;;;;;;103938;1291;545498;-70
2024/03/20 18:52:28;;;;;;;88.80;49.10;;;;;;;;;;103953;1289;544821;-70
2024/03/20 18:56:03;;;;;;;84.40;47.90;;;;;;;;;;103898;1292;545050;-70
2024/03/20 18:59:46;;;;;;;97.00;54.10;;;;;;;;;;103413;1298;546400;-71
2024/03/20 19:03:20;;;;;;;103.80;58.60;;;;;;;;;;103858;1293;544866;-71
2024/03/20 19:06:57;;;;;;;108.50;60.80;;;;;;;;;;103771;1292;544779;-71
2024/03/20 19:10:37;;;;;;;106.50;58.70;;;;;;;;;;103751;1290;544899;-72
2024/03/20 19:14:18;;;;;;;98.40;58.80;;;;;;;;;;104074;1288;545591;-72
2024/03/20 19:17:49;;;;;;;85.60;49.80;;;;;;;;;;103711;1289;544874;-72
2024/03/20 19:21:30;;;;;;;76.60;46.90;;;;;;;;;;103627;1298;544842;-71
2024/03/20 19:25:05;;;;;;;71.60;42.90;;;;;;;;;;103928;1289;544913;-71
2024/03/20 19:28:53;;;;;;;69.40;42.00;;;;;;;;;;103855;1292;544700;-71
2024/03/20 19:32:20;;;;;;;65.50;38.20;;;;;;;;;;103747;1289;545119;-72
2024/03/20 19:36:05;;;;;;;64.90;38.00;;;;;;;;;;103946;1291;545486;-72
2024/03/20 19:43:13;;;;;;;88.70;50.30;;;;;;;;;;103749;1289;545657;-71
2024/03/20 19:46:50;;;;;;;81.10;48.30;;;;;;;;;;104346;1289;545699;-71
2024/03/20 19:50:27;;;;;;;74.60;44.60;;;;;;;;;;103999;1289;544984;-71
2024/03/20 19:54:08;;;;;;;81.70;46.90;;;;;;;;;;104094;1292;545038;-72
2024/03/20 19:57:45;;;;;;;92.40;49.80;;;;;;;;;;103784;1289;545349;-72
2024/03/20 20:01:22;;;;;;;73.60;43.10;;;;;;;;;;103793;1292;545008;-72
2024/03/20 20:04:57;;;;;;;73.00;44.30;;;;;;;;;;103456;1295;545370;-72
2024/03/20 20:08:46;;;;;;;76.80;46.50;;;;;;;;;;103947;1288;548179;-72
2024/03/20 20:12:14;;;;;;;79.60;48.30;;;;;;;;;;103810;1292;544960;-71
2024/03/20 20:15:50;;;;;;;71.40;45.50;;;;;;;;;;103664;1288;545014;-70
2024/03/20 20:19:31;;;;;;;74.30;43.60;;;;;;;;;;103637;1289;545513;-72
2024/03/20 20:23:05;;;;;;;79.20;48.30;;;;;;;;;;103843;1291;545231;-69
2024/03/20 20:26:42;;;;;;;86.60;53.00;;;;;;;;;;103876;1290;545405;-71
2024/03/20 20:30:22;;;;;;;77.00;48.90;;;;;;;;;;103556;1292;545011;-72
2024/03/20 20:34:04;;;;;;;77.10;46.90;;;;;;;;;;103792;1292;544842;-71
2024/03/20 20:37:38;;;;;;;77.00;47.40;;;;;;;;;;103690;1293;544882;-71
2024/03/20 20:41:33;;;;;;;71.80;43.00;;;;;;;;;;103816;1295;547786;-71
2024/03/20 20:44:46;;;;;;;54.00;30.80;;;;;;;;;;104545;1283;545122;-71
2024/03/20 20:48:37;;;;;;;50.50;30.80;;;;;;;;;;103747;1292;545295;-71
2024/03/20 20:52:01;;;;;;;50.40;32.40;;;;;;;;;;103699;1291;545004;-70
2024/03/20 20:55:45;;;;;;;66.40;39.20;;;;;;;;;;103751;1291;544995;-71